sensor_id;sensor_type;location;lat;lon;timestamp;P1;durP1;ratioP1;P2;durP2;ratioP2
55483;SDS011;41345;51.704;5.146;2023-03-30T00:04:59;6.13;;;2.30;;
55483;SDS011;41345;51.704;5.146;2023-03-30T00:10:02;5.97;;;2.30;;
55483;SDS011;41345;51.704;5.146;2023-03-30T00:15:03;6.97;;;2.03;;
55483;SDS011;41345;51.704;5.146;2023-03-30T00:20:04;8.07;;;1.92;;
55483;SDS011;41345;51.704;5.146;2023-03-30T00:25:08;6.05;;;1.90;;
55483;SDS011;41345;51.704;5.146;2023-03-30T00:30:11;8.60;;;2.13;;
55483;SDS011;41345;51.704;5.146;2023-03-30T00:35:12;5.63;;;2.10;;
55483;SDS011;41345;51.704;5.146;2023-03-30T00:40:15;5.47;;;1.85;;
55483;SDS011;41345;51.704;5.146;2023-03-30T00:45:23;6.38;;;2.08;;
55483;SDS011;41345;51.704;5.146;2023-03-30T00:50:25;5.85;;;1.95;;
55483;SDS011;41345;51.704;5.146;2023-03-30T00:55:29;7.22;;;2.03;;
55483;SDS011;41345;51.704;5.146;2023-03-30T01:00:30;7.35;;;1.70;;
55483;SDS011;41345;51.704;5.146;2023-03-30T01:05:32;8.02;;;2.50;;
55483;SDS011;41345;51.704;5.146;2023-03-30T01:10:33;4.18;;;1.80;;
55483;SDS011;41345;51.704;5.146;2023-03-30T01:15:35;8.23;;;1.80;;
55483;SDS011;41345;51.704;5.146;2023-03-30T01:46:20;6.22;;;1.80;;
55483;SDS011;41345;51.704;5.146;2023-03-30T01:51:31;6.65;;;1.75;;
55483;SDS011;41345;51.704;5.146;2023-03-30T02:01:36;6.33;;;1.83;;
55483;SDS011;41345;51.704;5.146;2023-03-30T02:06:39;5.35;;;1.50;;
55483;SDS011;41345;51.704;5.146;2023-03-30T02:11:43;5.50;;;1.75;;
55483;SDS011;41345;51.704;5.146;2023-03-30T02:16:46;4.43;;;1.80;;
55483;SDS011;41345;51.704;5.146;2023-03-30T02:21:46;7.15;;;1.83;;
55483;SDS011;41345;51.704;5.146;2023-03-30T02:26:48;6.50;;;1.88;;
55483;SDS011;41345;51.704;5.146;2023-03-30T02:31:50;4.07;;;1.60;;
55483;SDS011;41345;51.704;5.146;2023-03-30T02:47:08;4.80;;;1.83;;
55483;SDS011;41345;51.704;5.146;2023-03-30T03:02:29;6.90;;;3.00;;
55483;SDS011;41345;51.704;5.146;2023-03-30T03:12:33;11.75;;;10.75;;
55483;SDS011;41345;51.704;5.146;2023-03-30T03:17:33;12.85;;;11.77;;
55483;SDS011;41345;51.704;5.146;2023-03-30T03:22:34;15.13;;;13.63;;
55483;SDS011;41345;51.704;5.146;2023-03-30T03:27:34;14.48;;;13.35;;
55483;SDS011;41345;51.704;5.146;2023-03-30T03:32:34;14.20;;;13.10;;
55483;SDS011;41345;51.704;5.146;2023-03-30T03:37:35;11.18;;;10.20;;
55483;SDS011;41345;51.704;5.146;2023-03-30T03:42:35;10.63;;;9.70;;
55483;SDS011;41345;51.704;5.146;2023-03-30T03:47:36;10.00;;;8.38;;
55483;SDS011;41345;51.704;5.146;2023-03-30T03:52:36;12.27;;;6.43;;
55483;SDS011;41345;51.704;5.146;2023-03-30T03:57:36;8.15;;;5.95;;
55483;SDS011;41345;51.704;5.146;2023-03-30T04:02:36;10.48;;;5.13;;
55483;SDS011;41345;51.704;5.146;2023-03-30T04:07:37;9.07;;;4.65;;
55483;SDS011;41345;51.704;5.146;2023-03-30T04:12:37;8.80;;;4.45;;
55483;SDS011;41345;51.704;5.146;2023-03-30T04:17:37;10.43;;;7.47;;
55483;SDS011;41345;51.704;5.146;2023-03-30T04:22:38;11.60;;;8.80;;
55483;SDS011;41345;51.704;5.146;2023-03-30T04:27:41;18.33;;;16.73;;
55483;SDS011;41345;51.704;5.146;2023-03-30T04:32:44;20.93;;;19.23;;
55483;SDS011;41345;51.704;5.146;2023-03-30T04:37:46;25.83;;;23.77;;
55483;SDS011;41345;51.704;5.146;2023-03-30T04:42:51;27.85;;;25.58;;
55483;SDS011;41345;51.704;5.146;2023-03-30T04:47:51;28.35;;;25.58;;
55483;SDS011;41345;51.704;5.146;2023-03-30T04:52:51;28.80;;;26.90;;
55483;SDS011;41345;51.704;5.146;2023-03-30T04:57:52;28.58;;;26.00;;
55483;SDS011;41345;51.704;5.146;2023-03-30T05:02:52;27.73;;;25.42;;
55483;SDS011;41345;51.704;5.146;2023-03-30T05:07:52;28.77;;;26.67;;
55483;SDS011;41345;51.704;5.146;2023-03-30T05:12:53;28.83;;;26.70;;
55483;SDS011;41345;51.704;5.146;2023-03-30T05:17:54;30.25;;;28.05;;
55483;SDS011;41345;51.704;5.146;2023-03-30T05:22:55;28.05;;;25.52;;
55483;SDS011;41345;51.704;5.146;2023-03-30T05:27:57;27.58;;;25.70;;
55483;SDS011;41345;51.704;5.146;2023-03-30T05:32:57;29.15;;;26.75;;
55483;SDS011;41345;51.704;5.146;2023-03-30T05:37:57;29.42;;;26.88;;
55483;SDS011;41345;51.704;5.146;2023-03-30T05:42:58;30.93;;;28.37;;
55483;SDS011;41345;51.704;5.146;2023-03-30T05:47:58;29.67;;;27.48;;
55483;SDS011;41345;51.704;5.146;2023-03-30T05:52:59;29.90;;;27.55;;
55483;SDS011;41345;51.704;5.146;2023-03-30T05:57:59;28.63;;;26.23;;
55483;SDS011;41345;51.704;5.146;2023-03-30T06:03:00;28.55;;;26.38;;
55483;SDS011;41345;51.704;5.146;2023-03-30T06:08:01;28.10;;;25.88;;
55483;SDS011;41345;51.704;5.146;2023-03-30T06:13:03;30.45;;;28.30;;
55483;SDS011;41345;51.704;5.146;2023-03-30T06:18:04;28.48;;;26.20;;
55483;SDS011;41345;51.704;5.146;2023-03-30T06:23:04;28.85;;;26.65;;
55483;SDS011;41345;51.704;5.146;2023-03-30T06:28:05;27.23;;;25.20;;
55483;SDS011;41345;51.704;5.146;2023-03-30T06:33:05;27.95;;;25.60;;
55483;SDS011;41345;51.704;5.146;2023-03-30T06:38:05;27.38;;;25.20;;
55483;SDS011;41345;51.704;5.146;2023-03-30T06:43:06;21.27;;;19.05;;
55483;SDS011;41345;51.704;5.146;2023-03-30T06:48:07;21.48;;;19.48;;
55483;SDS011;41345;51.704;5.146;2023-03-30T06:53:07;20.95;;;18.95;;
55483;SDS011;41345;51.704;5.146;2023-03-30T06:58:08;16.30;;;13.20;;
55483;SDS011;41345;51.704;5.146;2023-03-30T07:03:08;17.30;;;12.82;;
55483;SDS011;41345;51.704;5.146;2023-03-30T07:08:09;14.57;;;11.57;;
55483;SDS011;41345;51.704;5.146;2023-03-30T07:13:09;18.88;;;13.88;;
55483;SDS011;41345;51.704;5.146;2023-03-30T07:18:09;20.80;;;9.70;;
55483;SDS011;41345;51.704;5.146;2023-03-30T07:23:09;14.50;;;8.32;;
55483;SDS011;41345;51.704;5.146;2023-03-30T07:28:10;14.68;;;7.38;;
55483;SDS011;41345;51.704;5.146;2023-03-30T07:33:11;15.95;;;6.88;;
55483;SDS011;41345;51.704;5.146;2023-03-30T07:38:14;13.07;;;5.93;;
55483;SDS011;41345;51.704;5.146;2023-03-30T07:43:15;20.47;;;6.10;;
55483;SDS011;41345;51.704;5.146;2023-03-30T07:48:15;15.60;;;5.43;;
55483;SDS011;41345;51.704;5.146;2023-03-30T07:53:15;18.50;;;7.57;;
55483;SDS011;41345;51.704;5.146;2023-03-30T07:58:15;20.13;;;6.50;;
55483;SDS011;41345;51.704;5.146;2023-03-30T08:03:16;21.00;;;6.78;;
55483;SDS011;41345;51.704;5.146;2023-03-30T08:08:17;19.00;;;5.40;;
55483;SDS011;41345;51.704;5.146;2023-03-30T08:13:17;19.50;;;6.35;;
55483;SDS011;41345;51.704;5.146;2023-03-30T08:18:18;19.20;;;4.68;;
55483;SDS011;41345;51.704;5.146;2023-03-30T08:23:18;14.93;;;5.00;;
55483;SDS011;41345;51.704;5.146;2023-03-30T08:28:19;18.15;;;5.03;;
55483;SDS011;41345;51.704;5.146;2023-03-30T08:33:20;16.45;;;4.28;;
55483;SDS011;41345;51.704;5.146;2023-03-30T08:38:22;20.77;;;4.68;;
55483;SDS011;41345;51.704;5.146;2023-03-30T08:48:23;16.77;;;3.90;;
55483;SDS011;41345;51.704;5.146;2023-03-30T08:53:25;13.32;;;3.30;;
55483;SDS011;41345;51.704;5.146;2023-03-30T09:08:55;20.50;;;4.70;;
55483;SDS011;41345;51.704;5.146;2023-03-30T09:13:56;20.05;;;4.13;;
55483;SDS011;41345;51.704;5.146;2023-03-30T09:18:58;24.02;;;4.63;;
55483;SDS011;41345;51.704;5.146;2023-03-30T09:24:00;20.25;;;3.95;;
55483;SDS011;41345;51.704;5.146;2023-03-30T09:29:21;14.73;;;3.42;;
55483;SDS011;41345;51.704;5.146;2023-03-30T09:34:25;24.43;;;4.97;;
55483;SDS011;41345;51.704;5.146;2023-03-30T09:39:27;17.05;;;4.45;;
55483;SDS011;41345;51.704;5.146;2023-03-30T09:44:31;16.05;;;3.67;;
55483;SDS011;41345;51.704;5.146;2023-03-30T09:49:36;18.50;;;4.28;;
55483;SDS011;41345;51.704;5.146;2023-03-30T09:54:38;22.30;;;4.35;;
55483;SDS011;41345;51.704;5.146;2023-03-30T09:59:38;26.90;;;3.97;;
55483;SDS011;41345;51.704;5.146;2023-03-30T10:09:54;17.98;;;3.40;;
55483;SDS011;41345;51.704;5.146;2023-03-30T10:15:00;17.27;;;3.67;;
55483;SDS011;41345;51.704;5.146;2023-03-30T10:25:21;18.35;;;3.65;;
55483;SDS011;41345;51.704;5.146;2023-03-30T10:30:23;24.45;;;3.88;;
55483;SDS011;41345;51.704;5.146;2023-03-30T10:35:26;18.80;;;3.10;;
55483;SDS011;41345;51.704;5.146;2023-03-30T10:40:31;19.48;;;3.63;;
55483;SDS011;41345;51.704;5.146;2023-03-30T10:50:43;18.83;;;3.85;;
55483;SDS011;41345;51.704;5.146;2023-03-30T11:06:12;19.70;;;3.95;;
55483;SDS011;41345;51.704;5.146;2023-03-30T11:11:22;16.50;;;3.60;;
55483;SDS011;41345;51.704;5.146;2023-03-30T11:21:44;20.77;;;3.72;;
55483;SDS011;41345;51.704;5.146;2023-03-30T11:31:57;18.73;;;3.58;;
55483;SDS011;41345;51.704;5.146;2023-03-30T11:37:00;15.98;;;3.05;;
55483;SDS011;41345;51.704;5.146;2023-03-30T11:52:12;13.40;;;2.90;;
55483;SDS011;41345;51.704;5.146;2023-03-30T12:02:30;16.50;;;2.92;;
55483;SDS011;41345;51.704;5.146;2023-03-30T12:12:51;16.25;;;3.00;;
55483;SDS011;41345;51.704;5.146;2023-03-30T12:33:12;15.80;;;3.00;;
55483;SDS011;41345;51.704;5.146;2023-03-30T12:38:19;16.25;;;2.45;;
55483;SDS011;41345;51.704;5.146;2023-03-30T12:48:42;16.92;;;3.05;;
55483;SDS011;41345;51.704;5.146;2023-03-30T13:04:32;19.63;;;2.65;;
55483;SDS011;41345;51.704;5.146;2023-03-30T13:09:34;13.40;;;2.58;;
55483;SDS011;41345;51.704;5.146;2023-03-30T13:14:42;15.07;;;2.50;;
55483;SDS011;41345;51.704;5.146;2023-03-30T13:19:44;18.88;;;2.83;;
55483;SDS011;41345;51.704;5.146;2023-03-30T13:29:51;13.95;;;2.65;;
55483;SDS011;41345;51.704;5.146;2023-03-30T13:40:02;20.77;;;3.80;;
55483;SDS011;41345;51.704;5.146;2023-03-30T13:50:23;17.05;;;4.75;;
55483;SDS011;41345;51.704;5.146;2023-03-30T13:55:27;11.52;;;2.58;;
55483;SDS011;41345;51.704;5.146;2023-03-30T14:00:33;16.52;;;2.65;;
55483;SDS011;41345;51.704;5.146;2023-03-30T14:05:39;14.55;;;2.30;;
55483;SDS011;41345;51.704;5.146;2023-03-30T14:10:44;10.98;;;2.28;;
55483;SDS011;41345;51.704;5.146;2023-03-30T14:20:47;11.77;;;2.30;;
55483;SDS011;41345;51.704;5.146;2023-03-30T14:25:51;12.48;;;2.42;;
55483;SDS011;41345;51.704;5.146;2023-03-30T14:30:53;14.95;;;2.42;;
55483;SDS011;41345;51.704;5.146;2023-03-30T14:35:55;14.98;;;2.90;;
55483;SDS011;41345;51.704;5.146;2023-03-30T14:40:56;11.77;;;3.05;;
55483;SDS011;41345;51.704;5.146;2023-03-30T14:45:57;11.10;;;2.38;;
55483;SDS011;41345;51.704;5.146;2023-03-30T14:50:59;13.10;;;3.22;;
55483;SDS011;41345;51.704;5.146;2023-03-30T14:56:00;12.20;;;2.35;;
55483;SDS011;41345;51.704;5.146;2023-03-30T15:01:02;10.98;;;2.72;;
55483;SDS011;41345;51.704;5.146;2023-03-30T15:06:05;11.55;;;2.20;;
55483;SDS011;41345;51.704;5.146;2023-03-30T15:11:10;9.98;;;1.90;;
55483;SDS011;41345;51.704;5.146;2023-03-30T15:16:13;11.20;;;2.03;;
55483;SDS011;41345;51.704;5.146;2023-03-30T15:21:14;9.17;;;1.93;;
55483;SDS011;41345;51.704;5.146;2023-03-30T15:26:15;11.40;;;2.50;;
55483;SDS011;41345;51.704;5.146;2023-03-30T15:31:17;17.08;;;2.95;;
55483;SDS011;41345;51.704;5.146;2023-03-30T15:36:19;10.85;;;2.22;;
55483;SDS011;41345;51.704;5.146;2023-03-30T15:41:22;11.05;;;3.05;;
55483;SDS011;41345;51.704;5.146;2023-03-30T15:46:23;13.85;;;3.00;;
55483;SDS011;41345;51.704;5.146;2023-03-30T15:51:28;16.08;;;2.83;;
55483;SDS011;41345;51.704;5.146;2023-03-30T15:56:32;16.27;;;3.85;;
55483;SDS011;41345;51.704;5.146;2023-03-30T16:07:08;21.88;;;3.40;;
55483;SDS011;41345;51.704;5.146;2023-03-30T16:12:14;12.63;;;2.75;;
55483;SDS011;41345;51.704;5.146;2023-03-30T16:17:15;13.40;;;2.63;;
55483;SDS011;41345;51.704;5.146;2023-03-30T16:22:15;12.90;;;2.60;;
55483;SDS011;41345;51.704;5.146;2023-03-30T16:27:15;14.25;;;2.30;;
55483;SDS011;41345;51.704;5.146;2023-03-30T16:32:16;11.35;;;2.90;;
55483;SDS011;41345;51.704;5.146;2023-03-30T16:37:16;9.40;;;2.08;;
55483;SDS011;41345;51.704;5.146;2023-03-30T16:42:16;12.23;;;2.75;;
55483;SDS011;41345;51.704;5.146;2023-03-30T16:47:16;11.82;;;2.40;;
55483;SDS011;41345;51.704;5.146;2023-03-30T16:52:19;11.75;;;2.38;;
55483;SDS011;41345;51.704;5.146;2023-03-30T16:57:20;13.95;;;2.55;;
55483;SDS011;41345;51.704;5.146;2023-03-30T17:02:20;14.38;;;2.72;;
55483;SDS011;41345;51.704;5.146;2023-03-30T17:07:20;16.83;;;2.80;;
55483;SDS011;41345;51.704;5.146;2023-03-30T17:12:21;14.88;;;2.85;;
55483;SDS011;41345;51.704;5.146;2023-03-30T17:17:21;13.17;;;2.77;;
55483;SDS011;41345;51.704;5.146;2023-03-30T17:22:21;11.63;;;2.58;;
55483;SDS011;41345;51.704;5.146;2023-03-30T17:27:22;11.80;;;2.50;;
55483;SDS011;41345;51.704;5.146;2023-03-30T17:32:22;13.48;;;2.60;;
55483;SDS011;41345;51.704;5.146;2023-03-30T17:37:22;11.75;;;2.50;;
55483;SDS011;41345;51.704;5.146;2023-03-30T17:42:22;10.13;;;2.13;;
55483;SDS011;41345;51.704;5.146;2023-03-30T17:47:23;12.70;;;2.47;;
55483;SDS011;41345;51.704;5.146;2023-03-30T17:52:23;15.10;;;3.23;;
55483;SDS011;41345;51.704;5.146;2023-03-30T17:57:29;14.20;;;3.17;;
55483;SDS011;41345;51.704;5.146;2023-03-30T18:02:29;14.88;;;2.75;;
55483;SDS011;41345;51.704;5.146;2023-03-30T18:07:29;8.93;;;1.90;;
55483;SDS011;41345;51.704;5.146;2023-03-30T18:12:29;15.73;;;3.15;;
55483;SDS011;41345;51.704;5.146;2023-03-30T18:17:30;13.02;;;2.90;;
55483;SDS011;41345;51.704;5.146;2023-03-30T18:22:30;11.50;;;2.13;;
55483;SDS011;41345;51.704;5.146;2023-03-30T18:27:31;14.18;;;2.88;;
55483;SDS011;41345;51.704;5.146;2023-03-30T18:32:31;12.93;;;2.40;;
55483;SDS011;41345;51.704;5.146;2023-03-30T18:37:31;13.57;;;2.50;;
55483;SDS011;41345;51.704;5.146;2023-03-30T18:42:31;13.80;;;2.72;;
55483;SDS011;41345;51.704;5.146;2023-03-30T18:47:32;10.90;;;2.70;;
55483;SDS011;41345;51.704;5.146;2023-03-30T18:52:32;10.52;;;2.28;;
55483;SDS011;41345;51.704;5.146;2023-03-30T18:57:32;12.65;;;2.88;;
55483;SDS011;41345;51.704;5.146;2023-03-30T19:02:32;16.52;;;3.28;;
55483;SDS011;41345;51.704;5.146;2023-03-30T19:07:33;11.52;;;2.97;;
55483;SDS011;41345;51.704;5.146;2023-03-30T19:12:33;11.30;;;3.37;;
55483;SDS011;41345;51.704;5.146;2023-03-30T19:17:34;16.00;;;3.47;;
55483;SDS011;41345;51.704;5.146;2023-03-30T19:22:34;17.45;;;3.75;;
55483;SDS011;41345;51.704;5.146;2023-03-30T19:27:34;15.20;;;3.72;;
55483;SDS011;41345;51.704;5.146;2023-03-30T19:32:35;17.67;;;3.70;;
55483;SDS011;41345;51.704;5.146;2023-03-30T19:37:36;13.13;;;4.10;;
55483;SDS011;41345;51.704;5.146;2023-03-30T19:42:36;16.02;;;3.40;;
55483;SDS011;41345;51.704;5.146;2023-03-30T19:47:37;16.45;;;3.40;;
55483;SDS011;41345;51.704;5.146;2023-03-30T19:52:37;20.77;;;4.65;;
55483;SDS011;41345;51.704;5.146;2023-03-30T19:57:38;12.65;;;4.40;;
55483;SDS011;41345;51.704;5.146;2023-03-30T20:02:39;17.15;;;4.57;;
55483;SDS011;41345;51.704;5.146;2023-03-30T20:07:40;19.80;;;5.53;;
55483;SDS011;41345;51.704;5.146;2023-03-30T20:12:41;16.30;;;4.70;;
55483;SDS011;41345;51.704;5.146;2023-03-30T20:17:41;17.33;;;5.90;;
55483;SDS011;41345;51.704;5.146;2023-03-30T20:22:42;17.83;;;6.27;;
55483;SDS011;41345;51.704;5.146;2023-03-30T20:27:42;16.88;;;5.43;;
55483;SDS011;41345;51.704;5.146;2023-03-30T20:32:43;16.17;;;5.63;;
55483;SDS011;41345;51.704;5.146;2023-03-30T20:37:43;21.03;;;5.80;;
55483;SDS011;41345;51.704;5.146;2023-03-30T20:42:44;16.30;;;5.60;;
55483;SDS011;41345;51.704;5.146;2023-03-30T20:47:47;22.65;;;6.97;;
55483;SDS011;41345;51.704;5.146;2023-03-30T20:52:49;17.08;;;7.00;;
55483;SDS011;41345;51.704;5.146;2023-03-30T20:57:51;15.73;;;6.95;;
55483;SDS011;41345;51.704;5.146;2023-03-30T21:02:52;14.40;;;7.30;;
55483;SDS011;41345;51.704;5.146;2023-03-30T21:07:52;19.77;;;7.85;;
55483;SDS011;41345;51.704;5.146;2023-03-30T21:12:54;15.10;;;8.38;;
55483;SDS011;41345;51.704;5.146;2023-03-30T21:17:54;16.10;;;8.25;;
55483;SDS011;41345;51.704;5.146;2023-03-30T21:22:55;18.35;;;8.30;;
55483;SDS011;41345;51.704;5.146;2023-03-30T21:27:55;18.50;;;11.55;;
55483;SDS011;41345;51.704;5.146;2023-03-30T21:32:55;20.73;;;11.73;;
55483;SDS011;41345;51.704;5.146;2023-03-30T21:37:56;19.30;;;12.13;;
55483;SDS011;41345;51.704;5.146;2023-03-30T21:42:56;22.83;;;18.83;;
55483;SDS011;41345;51.704;5.146;2023-03-30T21:47:56;24.50;;;18.27;;
55483;SDS011;41345;51.704;5.146;2023-03-30T21:52:56;20.47;;;18.23;;
55483;SDS011;41345;51.704;5.146;2023-03-30T21:57:57;28.48;;;26.00;;
55483;SDS011;41345;51.704;5.146;2023-03-30T22:02:58;23.98;;;21.45;;
55483;SDS011;41345;51.704;5.146;2023-03-30T22:07:58;28.77;;;26.13;;
55483;SDS011;41345;51.704;5.146;2023-03-30T22:12:58;29.85;;;27.38;;
55483;SDS011;41345;51.704;5.146;2023-03-30T22:17:59;34.75;;;32.00;;
55483;SDS011;41345;51.704;5.146;2023-03-30T22:22:59;30.80;;;28.20;;
55483;SDS011;41345;51.704;5.146;2023-03-30T22:28:00;32.97;;;30.35;;
55483;SDS011;41345;51.704;5.146;2023-03-30T22:33:00;34.00;;;31.30;;
55483;SDS011;41345;51.704;5.146;2023-03-30T22:38:01;32.47;;;30.05;;
55483;SDS011;41345;51.704;5.146;2023-03-30T22:43:02;30.10;;;27.75;;
55483;SDS011;41345;51.704;5.146;2023-03-30T22:48:02;29.55;;;26.85;;
55483;SDS011;41345;51.704;5.146;2023-03-30T22:53:02;28.95;;;26.80;;
55483;SDS011;41345;51.704;5.146;2023-03-30T22:58:03;30.88;;;28.25;;
55483;SDS011;41345;51.704;5.146;2023-03-30T23:03:03;27.55;;;25.20;;
55483;SDS011;41345;51.704;5.146;2023-03-30T23:08:04;26.95;;;24.42;;
55483;SDS011;41345;51.704;5.146;2023-03-30T23:13:04;27.05;;;24.45;;
55483;SDS011;41345;51.704;5.146;2023-03-30T23:18:04;26.50;;;24.05;;
55483;SDS011;41345;51.704;5.146;2023-03-30T23:23:04;26.50;;;24.35;;
55483;SDS011;41345;51.704;5.146;2023-03-30T23:28:05;28.38;;;25.88;;
55483;SDS011;41345;51.704;5.146;2023-03-30T23:33:05;26.47;;;24.17;;
55483;SDS011;41345;51.704;5.146;2023-03-30T23:43:44;25.27;;;22.95;;
55483;SDS011;41345;51.704;5.146;2023-03-30T23:48:44;27.77;;;25.38;;
55483;SDS011;41345;51.704;5.146;2023-03-30T23:53:45;26.73;;;24.48;;
55483;SDS011;41345;51.704;5.146;2023-03-30T23:58:46;30.80;;;28.20;;
